createdAt,value
2023-04-28T00:01:46.093Z,4.35
2023-04-28T00:04:13.390Z,4.38
2023-04-28T00:06:41.120Z,3.53
2023-04-28T00:09:11.337Z,3.67
2023-04-28T00:11:38.959Z,4.50
2023-04-28T00:14:06.468Z,3.67
2023-04-28T00:16:33.602Z,3.70
2023-04-28T00:19:00.590Z,3.92
2023-04-28T00:21:28.697Z,4.03
2023-04-28T00:23:56.003Z,3.78
2023-04-28T00:26:23.094Z,3.88
2023-04-28T00:28:50.683Z,4.00
2023-04-28T00:31:17.995Z,3.92
2023-04-28T00:33:45.607Z,4.45
2023-04-28T00:36:12.714Z,4.03
2023-04-28T00:38:39.861Z,3.90
2023-04-28T00:41:07.354Z,4.70
2023-04-28T00:43:48.086Z,4.22
2023-04-28T00:46:23.339Z,3.95
2023-04-28T00:48:50.972Z,4.53
2023-04-28T00:51:18.220Z,4.03
2023-04-28T00:53:45.895Z,4.72
2023-04-28T00:56:12.975Z,4.80
2023-04-28T00:58:40.588Z,4.75
2023-04-28T01:01:10.030Z,4.85
2023-04-28T01:03:40.084Z,4.57
2023-04-28T01:06:10.075Z,5.22
2023-04-28T01:08:39.295Z,5.18
2023-04-28T01:11:14.245Z,5.40
2023-04-28T01:14:00.421Z,4.70
2023-04-28T01:16:32.760Z,4.72
2023-04-28T01:19:01.174Z,5.75
2023-04-28T01:21:32.757Z,5.15
2023-04-28T01:24:06.980Z,4.60
2023-04-28T01:26:33.937Z,4.25
2023-04-28T01:29:01.748Z,4.63
2023-04-28T01:31:31.200Z,4.32
2023-04-28T01:33:59.458Z,5.22
2023-04-28T01:36:28.570Z,5.45
2023-04-28T01:38:55.858Z,4.57
2023-04-28T01:41:23.010Z,4.55
2023-04-28T01:43:50.126Z,4.75
2023-04-28T01:46:18.577Z,4.10
2023-04-28T01:48:45.774Z,4.72
2023-04-28T01:51:13.399Z,4.50
2023-04-28T01:53:40.609Z,4.07
2023-04-28T01:56:08.021Z,4.60
2023-04-28T01:58:35.443Z,4.63
2023-04-28T02:01:03.036Z,4.75
2023-04-28T02:03:30.184Z,4.18
2023-04-28T02:05:57.456Z,3.47
2023-04-28T02:08:24.784Z,4.15
2023-04-28T02:10:52.807Z,4.80
2023-04-28T02:13:21.714Z,4.10
2023-04-28T02:15:48.914Z,3.97
2023-04-28T02:18:16.709Z,4.55
2023-04-28T02:20:43.732Z,4.63
2023-04-28T02:23:10.659Z,4.38
2023-04-28T02:25:37.786Z,4.70
2023-04-28T02:28:04.790Z,5.25
2023-04-28T02:30:35.084Z,4.85
2023-04-28T02:33:02.331Z,5.45
2023-04-28T02:35:29.366Z,4.63
2023-04-28T02:37:56.524Z,5.53
2023-04-28T02:40:23.386Z,5.38
2023-04-28T02:42:50.618Z,5.40
2023-04-28T02:45:17.920Z,5.88
2023-04-28T02:47:44.891Z,4.53
2023-04-28T02:50:11.940Z,5.40
2023-04-28T02:52:39.197Z,5.72
2023-04-28T02:55:07.118Z,5.22
2023-04-28T02:57:34.101Z,5.60
2023-04-28T03:00:02.364Z,5.55
2023-04-28T03:02:37.840Z,5.32
2023-04-28T03:05:05.980Z,5.55
2023-04-28T03:07:33.233Z,4.60
2023-04-28T03:10:00.168Z,5.18
2023-04-28T03:12:27.181Z,5.05
2023-04-28T03:14:54.116Z,6.00
2023-04-28T03:17:21.170Z,4.80
2023-04-28T03:19:48.705Z,5.18
2023-04-28T03:22:15.692Z,5.05
2023-04-28T03:24:43.127Z,5.07
2023-04-28T03:27:10.609Z,5.25
2023-04-28T03:29:37.622Z,5.35
2023-04-28T03:32:04.904Z,5.97
2023-04-28T03:34:31.899Z,6.45
2023-04-28T03:36:59.305Z,6.07
2023-04-28T03:39:29.565Z,5.40
2023-04-28T03:41:56.716Z,5.32
2023-04-28T03:45:02.232Z,6.10
2023-04-28T03:47:30.589Z,6.53
2023-04-28T03:50:03.961Z,6.25
2023-04-28T03:52:31.179Z,6.70
2023-04-28T03:54:58.214Z,7.13
2023-04-28T03:57:25.377Z,7.10
2023-04-28T03:59:52.420Z,7.63
2023-04-28T04:02:19.533Z,6.50
2023-04-28T04:04:46.726Z,6.28
2023-04-28T04:07:13.889Z,7.55
2023-04-28T04:09:41.749Z,7.18
2023-04-28T04:12:10.121Z,6.80
2023-04-28T04:14:37.394Z,7.30
2023-04-28T04:17:04.512Z,9.18
2023-04-28T04:19:32.049Z,9.00
2023-04-28T04:21:59.092Z,8.13
2023-04-28T04:24:26.333Z,7.85
2023-04-28T04:26:53.915Z,8.93
2023-04-28T04:29:37.743Z,8.15
2023-04-28T04:32:11.359Z,9.02
2023-04-28T04:34:39.756Z,8.48
2023-04-28T04:37:07.244Z,8.65
2023-04-28T04:39:37.967Z,8.88
2023-04-28T04:42:16.842Z,9.20
2023-04-28T04:45:22.877Z,9.18
2023-04-28T04:47:53.022Z,9.07
2023-04-28T04:50:20.377Z,8.77
2023-04-28T04:52:47.535Z,8.15
2023-04-28T04:55:14.525Z,7.60
2023-04-28T04:57:42.932Z,8.27
2023-04-28T05:00:22.946Z,9.55
2023-04-28T05:02:50.435Z,8.77
2023-04-28T05:05:21.676Z,8.63
2023-04-28T05:08:15.891Z,8.88
2023-04-28T05:10:43.123Z,9.18
2023-04-28T05:13:10.406Z,8.00
2023-04-28T05:15:37.952Z,8.38
2023-04-28T05:18:29.036Z,8.65
2023-04-28T05:20:56.576Z,8.90
2023-04-28T05:23:23.711Z,9.43
2023-04-28T05:25:51.782Z,9.43
2023-04-28T05:28:21.970Z,9.80
2023-04-28T05:30:52.320Z,8.73
2023-04-28T05:33:20.165Z,9.00
2023-04-28T05:35:48.174Z,9.05
2023-04-28T05:38:15.325Z,9.65
2023-04-28T05:40:44.383Z,9.60
2023-04-28T05:43:12.877Z,12.43
2023-04-28T05:45:40.999Z,10.48
2023-04-28T05:48:08.593Z,11.45
2023-04-28T05:50:37.715Z,11.65
2023-04-28T05:53:07.447Z,13.00
2023-04-28T05:55:36.375Z,13.02
2023-04-28T05:58:04.550Z,13.10
2023-04-28T06:00:32.071Z,13.05
2023-04-28T06:03:01.116Z,12.57
2023-04-28T06:05:28.300Z,14.73
2023-04-28T06:07:56.431Z,13.55
2023-04-28T06:10:26.211Z,13.18
2023-04-28T06:12:53.227Z,12.98
2023-04-28T06:15:20.377Z,13.25
2023-04-28T06:17:48.395Z,13.15
2023-04-28T06:20:16.782Z,12.85
2023-04-28T06:22:44.888Z,13.25
2023-04-28T06:25:12.399Z,14.00
2023-04-28T06:27:44.868Z,14.13
2023-04-28T06:30:21.972Z,14.00
2023-04-28T06:32:49.607Z,14.88
2023-04-28T06:35:18.282Z,14.38
2023-04-28T06:37:45.243Z,14.40
2023-04-28T06:40:12.360Z,14.18
2023-04-28T06:42:43.475Z,13.68
2023-04-28T06:45:12.904Z,14.38
2023-04-28T06:47:40.848Z,14.63
2023-04-28T06:50:09.875Z,15.55
2023-04-28T06:52:39.711Z,14.48
2023-04-28T06:55:10.639Z,14.02
2023-04-28T06:57:38.339Z,14.10
2023-04-28T07:00:09.050Z,13.75
2023-04-28T07:02:37.113Z,14.63
2023-04-28T07:05:05.159Z,13.90
2023-04-28T07:07:32.189Z,15.10
2023-04-28T07:10:00.560Z,14.20
2023-04-28T07:12:27.922Z,14.25
2023-04-28T07:14:55.931Z,16.02
2023-04-28T07:17:23.118Z,14.60
2023-04-28T07:19:51.026Z,14.60
2023-04-28T07:22:18.185Z,13.10
2023-04-28T07:24:45.643Z,13.32
2023-04-28T07:27:12.908Z,13.02
2023-04-28T07:29:40.075Z,14.38
2023-04-28T07:32:10.697Z,13.13
2023-04-28T07:34:38.239Z,14.65
2023-04-28T07:37:05.757Z,13.75
2023-04-28T07:39:34.937Z,13.27
2023-04-28T07:42:03.368Z,12.32
2023-04-28T07:44:31.675Z,12.02
2023-04-28T07:47:01.103Z,13.43
2023-04-28T07:49:31.910Z,12.13
2023-04-28T07:51:59.334Z,12.48
2023-04-28T07:54:26.664Z,11.82
2023-04-28T07:56:54.337Z,10.63
2023-04-28T07:59:21.810Z,11.48
2023-04-28T08:01:49.041Z,12.70
2023-04-28T08:04:16.334Z,10.90
2023-04-28T08:06:43.712Z,10.75
2023-04-28T08:09:12.754Z,10.85
2023-04-28T08:11:40.716Z,11.15
2023-04-28T08:14:08.119Z,11.15
2023-04-28T08:16:38.501Z,11.65
2023-04-28T08:19:06.404Z,11.25
2023-04-28T08:21:34.301Z,11.07
2023-04-28T08:24:01.942Z,6.85
2023-04-28T08:26:29.342Z,5.97
2023-04-28T08:28:56.300Z,5.00
2023-04-28T08:31:23.962Z,5.78
2023-04-28T08:33:51.390Z,5.40
2023-04-28T08:36:18.835Z,5.97
2023-04-28T08:38:46.333Z,6.10
2023-04-28T08:41:16.184Z,6.43
2023-04-28T08:43:43.581Z,7.20
2023-04-28T08:46:11.295Z,7.70
2023-04-28T08:48:45.585Z,6.15
2023-04-28T08:51:33.828Z,6.78
2023-04-28T08:56:37.068Z,7.68
2023-04-28T08:59:05.404Z,7.10
2023-04-28T09:01:32.898Z,8.13
2023-04-28T09:04:14.455Z,7.72
2023-04-28T09:06:41.942Z,8.20
2023-04-28T09:09:26.109Z,8.20
2023-04-28T09:12:00.131Z,10.18
2023-04-28T09:14:36.405Z,9.38
2023-04-28T09:17:12.944Z,7.15
2023-04-28T09:19:43.044Z,8.48
2023-04-28T09:22:18.175Z,8.30
2023-04-28T09:24:55.161Z,8.13
2023-04-28T09:27:28.675Z,8.43
2023-04-28T09:29:56.076Z,7.28
2023-04-28T09:32:24.988Z,7.13
2023-04-28T09:34:56.706Z,6.95
2023-04-28T09:37:27.385Z,7.28
2023-04-28T09:39:55.503Z,6.00
2023-04-28T09:42:40.801Z,6.70
2023-04-28T09:45:16.937Z,6.70
2023-04-28T09:47:47.781Z,7.35
2023-04-28T09:50:18.323Z,7.03
2023-04-28T09:52:59.611Z,5.38
2023-04-28T09:55:28.660Z,5.45
2023-04-28T09:57:56.996Z,5.60
2023-04-28T10:00:24.960Z,4.45
2023-04-28T10:02:52.750Z,4.97
2023-04-28T10:05:22.334Z,4.70
2023-04-28T10:07:50.305Z,3.75
2023-04-28T10:10:18.728Z,4.28
2023-04-28T10:12:45.960Z,3.13
2023-04-28T10:15:20.932Z,3.13
2023-04-28T10:17:48.824Z,4.20
2023-04-28T10:20:16.848Z,3.45
2023-04-28T10:23:50.837Z,3.95
2023-04-28T10:26:21.986Z,3.00
2023-04-28T10:28:51.396Z,4.15
2023-04-28T10:31:23.319Z,3.83
2023-04-28T10:33:50.854Z,3.58
2023-04-28T10:36:55.030Z,4.07
2023-04-28T10:39:22.048Z,4.10
2023-04-28T10:41:49.501Z,4.38
2023-04-28T10:44:28.782Z,5.13
2023-04-28T10:47:09.890Z,3.72
2023-04-28T10:49:55.104Z,4.90
2023-04-28T10:52:37.879Z,4.90
2023-04-28T10:55:36.692Z,4.22
2023-04-28T10:58:15.900Z,4.63
2023-04-28T11:00:45.412Z,4.22
2023-04-28T11:03:47.202Z,5.18
2023-04-28T11:06:34.893Z,3.78
2023-04-28T11:09:32.140Z,4.65
2023-04-28T11:12:10.757Z,4.47
2023-04-28T11:14:40.948Z,5.10
2023-04-28T11:17:13.327Z,5.18
2023-04-28T11:19:45.146Z,5.82
2023-04-28T11:22:21.841Z,4.85
2023-04-28T11:25:01.667Z,4.18
2023-04-28T11:27:34.511Z,3.75
2023-04-28T11:30:01.999Z,4.85
2023-04-28T11:32:35.206Z,4.03
2023-04-28T11:35:04.795Z,4.05
2023-04-28T11:37:31.975Z,4.47
2023-04-28T11:39:59.011Z,4.60
2023-04-28T11:42:28.406Z,5.60
2023-04-28T11:44:55.812Z,5.28
2023-04-28T11:47:34.447Z,4.03
2023-04-28T11:50:03.326Z,4.50
2023-04-28T11:52:30.778Z,5.13
2023-04-28T11:55:02.106Z,5.45
2023-04-28T11:57:29.413Z,5.63
2023-04-28T12:00:22.107Z,5.75
2023-04-28T12:02:49.821Z,6.13
2023-04-28T12:05:17.307Z,5.88
2023-04-28T12:07:45.695Z,6.25
2023-04-28T12:10:17.385Z,5.55
2023-04-28T12:12:51.763Z,5.25
2023-04-28T12:15:22.224Z,5.32
2023-04-28T12:17:51.313Z,5.50
2023-04-28T12:20:39.348Z,5.68
2023-04-28T12:23:07.909Z,5.90
2023-04-28T12:25:44.947Z,5.55
2023-04-28T12:28:12.046Z,5.22
2023-04-28T12:30:39.710Z,5.20
2023-04-28T12:33:06.659Z,6.20
2023-04-28T12:35:33.867Z,6.00
2023-04-28T12:38:01.192Z,5.28
2023-04-28T12:40:28.246Z,5.70
2023-04-28T12:42:55.238Z,6.13
2023-04-28T12:45:22.239Z,4.97
2023-04-28T12:47:49.281Z,5.70
2023-04-28T12:50:16.309Z,5.65
2023-04-28T12:52:43.397Z,5.93
2023-04-28T12:55:10.818Z,5.55
2023-04-28T12:57:39.805Z,6.40
2023-04-28T13:00:09.091Z,6.70
2023-04-28T13:02:36.546Z,8.90
2023-04-28T13:05:04.014Z,6.50
2023-04-28T13:07:31.900Z,6.15
2023-04-28T13:09:59.448Z,6.13
2023-04-28T13:12:26.905Z,6.47
2023-04-28T13:14:54.368Z,6.82
2023-04-28T13:17:21.591Z,7.38
2023-04-28T13:19:49.212Z,7.00
2023-04-28T13:22:16.871Z,12.00
2023-04-28T13:24:44.290Z,6.93
2023-04-28T13:27:11.620Z,6.38
2023-04-28T13:29:38.667Z,6.55
2023-04-28T13:32:06.657Z,5.18
2023-04-28T13:34:33.887Z,7.00
2023-04-28T13:37:01.028Z,7.15
2023-04-28T13:39:27.965Z,10.30
2023-04-28T13:41:55.296Z,8.70
2023-04-28T13:44:22.749Z,8.27
2023-04-28T13:46:50.221Z,7.03
2023-04-28T13:49:17.486Z,6.20
2023-04-28T13:51:45.807Z,5.85
2023-04-28T13:54:13.087Z,5.43
2023-04-28T13:56:40.798Z,5.55
2023-04-28T13:59:08.296Z,5.68
2023-04-28T14:01:35.772Z,5.38
2023-04-28T14:04:04.390Z,6.07
2023-04-28T14:06:34.331Z,6.05
2023-04-28T14:09:02.845Z,5.90
2023-04-28T14:11:30.399Z,6.35
2023-04-28T14:13:57.886Z,6.13
2023-04-28T14:16:25.121Z,4.70
2023-04-28T14:18:52.333Z,4.72
2023-04-28T14:21:20.074Z,5.20
2023-04-28T14:23:47.502Z,5.15
2023-04-28T14:26:14.668Z,5.10
2023-04-28T14:28:42.270Z,4.95
2023-04-28T14:31:09.832Z,4.78
2023-04-28T14:33:38.156Z,4.50
2023-04-28T14:36:05.357Z,4.45
2023-04-28T14:38:32.471Z,4.95
2023-04-28T14:40:59.687Z,4.70
2023-04-28T14:43:26.815Z,4.57
2023-04-28T14:45:53.855Z,5.57
2023-04-28T14:48:21.046Z,5.47
2023-04-28T14:50:48.748Z,5.53
2023-04-28T14:53:16.207Z,5.00
2023-04-28T14:55:43.593Z,5.00
2023-04-28T14:58:10.757Z,5.15
2023-04-28T15:00:38.118Z,5.40
2023-04-28T15:03:05.372Z,5.15
2023-04-28T15:05:32.996Z,4.40
2023-04-28T15:08:00.008Z,4.82
2023-04-28T15:10:38.480Z,5.60
2023-04-28T15:13:07.402Z,5.45
2023-04-28T15:15:35.239Z,4.70
2023-04-28T15:18:03.721Z,4.57
2023-04-28T15:20:33.313Z,5.00
2023-04-28T15:23:00.833Z,4.10
2023-04-28T15:25:28.548Z,5.47
2023-04-28T15:27:56.075Z,5.18
2023-04-28T15:30:23.671Z,4.93
2023-04-28T15:32:51.296Z,5.15
2023-04-28T15:35:18.335Z,4.85
2023-04-28T15:37:51.853Z,5.40
2023-04-28T15:40:19.720Z,5.65
2023-04-28T15:42:49.593Z,4.80
2023-04-28T15:45:18.585Z,5.32
2023-04-28T15:47:49.321Z,5.22
2023-04-28T15:50:19.311Z,4.63
2023-04-28T15:52:48.112Z,4.57
2023-04-28T15:55:17.509Z,5.18
2023-04-28T15:57:47.791Z,4.93
2023-04-28T16:00:16.479Z,5.07
2023-04-28T16:02:45.235Z,4.57
2023-04-28T16:05:13.200Z,4.72
2023-04-28T16:07:44.661Z,4.68
2023-04-28T16:10:16.756Z,4.97
2023-04-28T16:12:43.835Z,4.88
2023-04-28T16:15:13.859Z,4.78
2023-04-28T16:17:42.379Z,4.47
2023-04-28T16:20:11.756Z,4.80
2023-04-28T16:22:40.681Z,5.03
2023-04-28T16:25:09.344Z,4.68
2023-04-28T16:27:37.623Z,5.55
2023-04-28T16:30:08.428Z,4.43
2023-04-28T16:32:38.540Z,4.65
2023-04-28T16:35:06.572Z,4.80
2023-04-28T16:37:36.415Z,4.25
2023-04-28T16:40:04.918Z,4.57
2023-04-28T16:42:33.824Z,4.72
2023-04-28T16:45:01.121Z,5.03
2023-04-28T16:47:31.200Z,4.13
2023-04-28T16:49:58.178Z,4.65
2023-04-28T16:52:26.420Z,3.92
2023-04-28T16:54:53.418Z,4.50
2023-04-28T16:57:20.587Z,4.05
2023-04-28T16:59:47.550Z,4.10
2023-04-28T17:02:14.638Z,4.00
2023-04-28T17:04:41.957Z,3.45
2023-04-28T17:07:09.041Z,4.05
2023-04-28T17:09:36.124Z,4.38
2023-04-28T17:12:03.876Z,3.90
2023-04-28T17:14:31.172Z,3.60
2023-04-28T17:17:00.415Z,3.80
2023-04-28T17:19:28.312Z,4.05
2023-04-28T17:21:55.767Z,3.97
2023-04-28T17:24:23.657Z,4.15
2023-04-28T17:26:51.082Z,3.97
2023-04-28T17:29:18.487Z,4.30
2023-04-28T17:31:45.836Z,4.65
2023-04-28T17:34:13.255Z,3.75
2023-04-28T17:36:40.385Z,4.03
2023-04-28T17:39:07.381Z,3.75
2023-04-28T17:41:35.441Z,3.60
2023-04-28T17:44:03.647Z,3.90
2023-04-28T17:46:31.250Z,4.85
2023-04-28T17:49:00.103Z,3.35
2023-04-28T17:51:27.796Z,5.50
2023-04-28T17:53:56.789Z,5.45
2023-04-28T17:56:23.888Z,6.55
2023-04-28T17:58:51.791Z,4.82
2023-04-28T18:01:19.033Z,2.97
2023-04-28T18:03:46.285Z,4.03
2023-04-28T18:06:14.128Z,4.15
2023-04-28T18:08:41.211Z,3.38
2023-04-28T18:11:10.098Z,3.58
2023-04-28T18:13:37.261Z,3.00
2023-04-28T18:16:05.213Z,3.65
2023-04-28T18:18:35.393Z,2.78
2023-04-28T18:21:02.799Z,2.15
2023-04-28T18:23:30.684Z,2.45
2023-04-28T18:25:59.261Z,1.73
2023-04-28T18:28:26.293Z,1.52
2023-04-28T18:30:53.631Z,1.50
2023-04-28T18:33:23.299Z,1.77
2023-04-28T18:36:04.686Z,1.70
2023-04-28T18:38:34.556Z,1.65
2023-04-28T18:41:12.139Z,1.10
2023-04-28T18:43:40.029Z,1.15
2023-04-28T18:46:08.381Z,1.27
2023-04-28T18:48:35.953Z,1.25
2023-04-28T18:51:04.271Z,1.05
2023-04-28T18:53:32.561Z,0.70
2023-04-28T18:55:59.563Z,0.68
2023-04-28T18:58:28.212Z,0.80
2023-04-28T19:00:55.382Z,0.73
2023-04-28T19:03:23.368Z,1.05
2023-04-28T19:05:50.624Z,1.15
2023-04-28T19:08:17.549Z,1.08
2023-04-28T19:10:44.633Z,1.05
2023-04-28T19:13:12.162Z,0.75
2023-04-28T19:15:39.715Z,0.63
2023-04-28T19:18:07.039Z,2.10
2023-04-28T19:20:34.247Z,0.90
2023-04-28T19:23:02.002Z,2.85
2023-04-28T19:25:30.706Z,0.60
2023-04-28T19:27:57.746Z,0.90
2023-04-28T19:30:25.338Z,0.82
2023-04-28T19:32:52.757Z,1.20
2023-04-28T19:35:20.423Z,1.20
2023-04-28T19:37:48.461Z,1.25
2023-04-28T19:40:17.486Z,1.48
2023-04-28T19:42:45.062Z,1.75
2023-04-28T19:45:12.480Z,1.50
2023-04-28T19:47:39.564Z,1.08
2023-04-28T19:50:10.184Z,2.10
2023-04-28T19:52:37.759Z,1.05
2023-04-28T19:55:05.372Z,1.42
2023-04-28T19:57:32.596Z,2.00
2023-04-28T19:59:59.702Z,1.48
2023-04-28T20:02:26.876Z,2.00
2023-04-28T20:04:53.893Z,2.00
2023-04-28T20:07:20.808Z,2.42
2023-04-28T20:09:48.201Z,1.50
2023-04-28T20:12:15.552Z,1.77
2023-04-28T20:14:42.537Z,2.30
2023-04-28T20:17:09.537Z,1.70
2023-04-28T20:19:37.002Z,2.70
2023-04-28T20:22:07.683Z,2.67
2023-04-28T20:24:37.138Z,2.65
2023-04-28T20:27:04.293Z,2.95
2023-04-28T20:29:34.752Z,3.35
2023-04-28T20:32:03.626Z,2.60
2023-04-28T20:34:32.303Z,2.50
2023-04-28T20:37:03.582Z,3.10
2023-04-28T20:39:30.745Z,2.58
2023-04-28T20:42:02.258Z,2.92
2023-04-28T20:44:29.186Z,2.92
2023-04-28T20:46:56.138Z,3.92
2023-04-28T20:49:23.966Z,3.92
2023-04-28T20:51:50.897Z,3.60
2023-04-28T20:54:17.857Z,3.58
2023-04-28T20:56:45.219Z,3.75
2023-04-28T20:59:12.573Z,3.47
2023-04-28T21:01:40.937Z,4.50
2023-04-28T21:04:08.914Z,3.88
2023-04-28T21:06:36.543Z,4.07
2023-04-28T21:09:03.673Z,3.50
2023-04-28T21:11:31.184Z,4.15
2023-04-28T21:13:58.612Z,4.35
2023-04-28T21:16:25.719Z,4.03
2023-04-28T21:18:52.813Z,2.72
2023-04-28T21:21:19.766Z,3.72
2023-04-28T21:23:47.126Z,3.30
2023-04-28T21:26:14.173Z,3.28
2023-04-28T21:28:41.839Z,3.15
2023-04-28T21:31:09.826Z,2.85
2023-04-28T21:33:37.240Z,3.75
2023-04-28T21:36:08.109Z,3.13
2023-04-28T21:38:39.685Z,3.10
2023-04-28T21:41:07.825Z,2.83
2023-04-28T21:43:35.173Z,2.63
2023-04-28T21:46:02.861Z,2.65
2023-04-28T21:48:30.144Z,3.03
2023-04-28T21:50:57.069Z,3.03
2023-04-28T21:53:24.045Z,2.58
2023-04-28T21:55:51.020Z,2.97
2023-04-28T21:58:18.324Z,4.13
2023-04-28T22:00:48.869Z,3.20
2023-04-28T22:03:16.545Z,3.38
2023-04-28T22:05:46.948Z,3.20
2023-04-28T22:08:14.643Z,3.13
2023-04-28T22:10:41.804Z,3.83
2023-04-28T22:13:09.308Z,3.35
2023-04-28T22:15:36.251Z,3.75
2023-04-28T22:18:03.522Z,4.00
2023-04-28T22:20:30.619Z,4.10
2023-04-28T22:22:57.704Z,3.65
2023-04-28T22:25:25.201Z,4.43
2023-04-28T22:27:52.313Z,3.08
2023-04-28T22:30:20.215Z,3.95
2023-04-28T22:32:47.917Z,4.00
2023-04-28T22:35:16.952Z,3.72
2023-04-28T22:37:44.271Z,3.72
2023-04-28T22:40:11.931Z,3.72
2023-04-28T22:42:41.284Z,4.10
2023-04-28T22:45:12.096Z,4.10
2023-04-28T22:47:41.051Z,4.93
2023-04-28T22:50:10.638Z,4.82
2023-04-28T22:52:38.499Z,4.57
2023-04-28T22:55:06.529Z,4.57
2023-04-28T22:57:33.902Z,4.80
2023-04-28T23:00:02.253Z,4.32
2023-04-28T23:02:29.745Z,4.18
2023-04-28T23:04:56.967Z,4.90
2023-04-28T23:07:24.641Z,4.63
2023-04-28T23:09:52.076Z,4.85
2023-04-28T23:12:19.777Z,4.47
2023-04-28T23:14:46.882Z,4.25
2023-04-28T23:17:13.912Z,5.55
2023-04-28T23:19:41.453Z,6.43
2023-04-28T23:22:09.013Z,5.88
2023-04-28T23:24:37.342Z,6.45
2023-04-28T23:27:04.979Z,6.35
2023-04-28T23:29:33.038Z,5.47
2023-04-28T23:32:00.485Z,5.93
2023-04-28T23:34:27.732Z,6.15
2023-04-28T23:36:54.902Z,5.97
2023-04-28T23:39:21.888Z,7.00
2023-04-28T23:41:48.978Z,6.25
2023-04-28T23:44:16.093Z,5.32
2023-04-28T23:46:44.233Z,5.78
2023-04-28T23:49:11.766Z,5.88
2023-04-28T23:51:40.991Z,6.32
2023-04-28T23:54:09.314Z,6.10
2023-04-28T23:56:36.302Z,6.72
2023-04-28T23:59:04.976Z,6.15
